createdAt,value
2023-02-21T00:04:56.864Z,5.16
2023-02-21T00:07:42.166Z,5.22
2023-02-21T00:10:28.478Z,5.19
2023-02-21T00:13:13.554Z,4.99
2023-02-21T00:15:58.799Z,4.97
2023-02-21T00:18:43.528Z,4.93
2023-02-21T00:21:28.742Z,4.93
2023-02-21T00:24:13.652Z,4.92
2023-02-21T00:26:58.792Z,4.91
2023-02-21T00:29:44.772Z,4.97
2023-02-21T00:32:29.859Z,4.98
2023-02-21T00:35:15.130Z,4.90
2023-02-21T00:38:00.262Z,4.75
2023-02-21T00:40:45.508Z,4.70
2023-02-21T00:43:30.630Z,4.78
2023-02-21T00:46:16.488Z,4.81
2023-02-21T00:49:01.765Z,4.70
2023-02-21T00:51:46.946Z,4.60
2023-02-21T00:54:32.090Z,4.66
2023-02-21T00:57:17.082Z,4.51
2023-02-21T01:00:02.225Z,4.54
2023-02-21T01:02:47.311Z,4.49
2023-02-21T01:05:32.353Z,4.43
2023-02-21T01:08:17.368Z,4.45
2023-02-21T01:11:02.246Z,4.47
2023-02-21T01:13:50.577Z,4.30
2023-02-21T01:16:36.117Z,4.32
2023-02-21T01:19:20.811Z,4.30
2023-02-21T01:22:08.044Z,4.27
2023-02-21T01:24:53.294Z,4.22
2023-02-21T01:27:38.486Z,4.30
2023-02-21T01:30:23.751Z,4.32
2023-02-21T01:33:08.836Z,4.22
2023-02-21T01:35:53.783Z,4.10
2023-02-21T01:38:40.234Z,4.07
2023-02-21T01:41:25.356Z,4.23
2023-02-21T01:44:49.504Z,4.30
2023-02-21T01:47:34.669Z,4.15
2023-02-21T01:50:22.206Z,4.13
2023-02-21T01:53:08.722Z,3.97
2023-02-21T01:55:57.644Z,4.02
2023-02-21T01:58:45.362Z,4.06
2023-02-21T02:01:39.211Z,4.05
2023-02-21T02:04:24.399Z,4.11
2023-02-21T02:07:10.054Z,3.94
2023-02-21T02:09:55.353Z,4.06
2023-02-21T02:12:36.843Z,3.86
2023-02-21T02:15:18.558Z,4.12
2023-02-21T02:18:00.319Z,4.00
2023-02-21T02:20:56.034Z,4.06
2023-02-21T02:23:31.479Z,3.93
2023-02-21T02:26:16.758Z,3.80
2023-02-21T02:29:05.016Z,3.91
2023-02-21T02:31:45.851Z,3.94
2023-02-21T02:34:40.205Z,3.76
2023-02-21T02:37:18.954Z,3.53
2023-02-21T02:39:51.465Z,3.52
2023-02-21T02:42:42.251Z,3.41
2023-02-21T02:45:33.613Z,3.30
2023-02-21T02:48:10.481Z,3.27
2023-02-21T02:50:39.243Z,3.18
2023-02-21T02:53:06.266Z,3.06
2023-02-21T02:55:43.143Z,2.97
2023-02-21T02:58:12.550Z,2.95
2023-02-21T03:00:45.792Z,2.98
2023-02-21T03:03:43.205Z,3.00
2023-02-21T03:06:33.368Z,2.92
2023-02-21T03:09:12.840Z,2.84
2023-02-21T03:11:50.479Z,2.87
2023-02-21T03:14:20.015Z,2.86
2023-02-21T03:16:59.914Z,2.84
2023-02-21T03:19:31.432Z,2.77
2023-02-21T03:22:01.953Z,2.76
2023-02-21T03:24:29.584Z,2.75
2023-02-21T03:27:02.302Z,2.68
2023-02-21T03:30:02.812Z,2.72
2023-02-21T03:32:37.427Z,2.58
2023-02-21T03:35:05.899Z,2.68
2023-02-21T03:37:42.866Z,2.63
2023-02-21T03:40:13.612Z,2.59
2023-02-21T03:42:40.083Z,2.48
2023-02-21T03:45:07.540Z,2.51
2023-02-21T03:47:34.134Z,2.49
2023-02-21T03:50:01.849Z,2.51
2023-02-21T03:52:28.379Z,2.47
2023-02-21T03:54:55.694Z,2.40
2023-02-21T03:57:25.036Z,2.67
2023-02-21T03:59:52.184Z,2.52
2023-02-21T04:02:19.396Z,2.49
2023-02-21T04:04:48.528Z,2.49
2023-02-21T04:07:19.268Z,2.51
2023-02-21T04:09:47.700Z,2.37
2023-02-21T04:12:20.524Z,2.36
2023-02-21T04:14:47.241Z,2.37
2023-02-21T04:17:13.784Z,2.42
2023-02-21T04:19:40.251Z,2.36
2023-02-21T04:22:06.933Z,2.31
2023-02-21T04:24:34.447Z,2.37
2023-02-21T04:27:02.199Z,2.46
2023-02-21T04:29:32.289Z,2.30
2023-02-21T04:32:03.095Z,2.31
2023-02-21T04:34:31.031Z,2.27
2023-02-21T04:36:57.651Z,2.25
2023-02-21T04:39:24.187Z,2.11
2023-02-21T04:41:50.785Z,2.34
2023-02-21T04:44:18.224Z,2.33
2023-02-21T04:46:44.966Z,2.17
2023-02-21T04:49:14.827Z,2.28
2023-02-21T04:51:41.504Z,2.32
2023-02-21T04:54:08.004Z,2.27
2023-02-21T04:56:34.559Z,2.43
2023-02-21T04:59:01.171Z,2.44
2023-02-21T05:01:30.746Z,2.48
2023-02-21T05:03:59.203Z,2.53
2023-02-21T05:06:27.626Z,2.53
2023-02-21T05:08:54.531Z,2.47
2023-02-21T05:11:21.970Z,2.63
2023-02-21T05:13:48.638Z,2.66
2023-02-21T05:16:15.328Z,2.60
2023-02-21T05:18:43.188Z,2.67
2023-02-21T05:21:09.963Z,2.56
2023-02-21T05:23:38.377Z,2.52
2023-02-21T05:26:08.948Z,2.80
2023-02-21T05:28:36.592Z,2.80
2023-02-21T05:31:03.983Z,2.79
2023-02-21T05:33:30.878Z,2.66
2023-02-21T05:35:57.388Z,2.63
2023-02-21T05:38:24.796Z,2.35
2023-02-21T05:40:51.907Z,2.67
2023-02-21T05:43:18.455Z,2.50
2023-02-21T05:45:45.052Z,2.81
2023-02-21T05:48:11.825Z,2.74
2023-02-21T05:50:39.599Z,2.65
2023-02-21T05:53:07.016Z,2.81
2023-02-21T05:55:33.615Z,2.69
2023-02-21T05:58:00.092Z,2.68
2023-02-21T06:00:29.090Z,2.60
2023-02-21T06:02:56.820Z,2.80
2023-02-21T06:05:24.006Z,2.79
2023-02-21T06:07:50.485Z,2.66
2023-02-21T06:10:19.379Z,2.85
2023-02-21T06:12:45.871Z,2.76
2023-02-21T06:15:13.109Z,2.80
2023-02-21T06:17:41.159Z,2.92
2023-02-21T06:20:10.616Z,2.83
2023-02-21T06:22:37.025Z,2.65
2023-02-21T06:25:03.925Z,2.81
2023-02-21T06:27:30.332Z,2.88
2023-02-21T06:29:56.820Z,2.87
2023-02-21T06:32:23.306Z,2.85
2023-02-21T06:34:49.748Z,2.89
2023-02-21T06:37:18.171Z,2.78
2023-02-21T06:39:45.278Z,2.98
2023-02-21T06:42:16.438Z,2.94
2023-02-21T06:44:47.260Z,2.93
2023-02-21T06:47:14.723Z,2.90
2023-02-21T06:49:41.576Z,2.92
2023-02-21T06:52:11.277Z,2.64
2023-02-21T06:54:38.384Z,3.02
2023-02-21T06:57:05.695Z,2.99
2023-02-21T06:59:32.528Z,2.68
2023-02-21T07:02:02.913Z,2.94
2023-02-21T07:04:29.377Z,2.61
2023-02-21T07:06:55.886Z,2.87
2023-02-21T07:09:22.382Z,2.74
2023-02-21T07:11:48.857Z,3.02
2023-02-21T07:14:15.319Z,3.03
2023-02-21T07:16:41.776Z,2.92
2023-02-21T07:19:08.569Z,3.13
2023-02-21T07:24:06.769Z,3.20
2023-02-21T07:26:33.281Z,3.09
2023-02-21T07:28:59.820Z,3.41
2023-02-21T07:31:26.957Z,3.42
2023-02-21T07:33:53.459Z,3.60
2023-02-21T07:36:19.972Z,3.59
2023-02-21T07:38:46.436Z,3.74
2023-02-21T07:41:15.726Z,3.87
2023-02-21T07:43:42.316Z,3.96
2023-02-21T07:46:13.930Z,3.90
2023-02-21T07:48:40.668Z,4.12
2023-02-21T07:51:08.146Z,4.32
2023-02-21T07:53:34.863Z,4.43
2023-02-21T07:56:02.736Z,4.32
2023-02-21T07:58:29.263Z,4.41
2023-02-21T08:00:55.778Z,4.49
2023-02-21T08:03:23.122Z,4.92
2023-02-21T08:05:50.273Z,4.99
2023-02-21T08:08:17.222Z,4.86
2023-02-21T08:10:43.747Z,5.33
2023-02-21T08:13:10.216Z,5.28
2023-02-21T08:15:36.646Z,5.44
2023-02-21T08:18:03.104Z,5.55
2023-02-21T08:20:29.578Z,5.61
2023-02-21T08:22:55.994Z,5.78
2023-02-21T08:25:22.432Z,5.99
2023-02-21T08:27:53.546Z,6.32
2023-02-21T08:30:20.213Z,6.40
2023-02-21T08:32:52.700Z,6.63
2023-02-21T08:35:20.094Z,6.81
2023-02-21T08:37:47.735Z,6.95
2023-02-21T08:40:15.954Z,7.07
2023-02-21T08:42:42.380Z,6.87
2023-02-21T08:45:16.469Z,7.24
2023-02-21T08:47:43.197Z,7.21
2023-02-21T08:50:09.806Z,7.44
2023-02-21T08:52:36.592Z,7.63
2023-02-21T08:55:03.563Z,7.77
2023-02-21T08:57:30.005Z,7.92
2023-02-21T08:59:56.516Z,7.97
2023-02-21T09:02:25.326Z,8.26
2023-02-21T09:04:53.098Z,8.16
2023-02-21T09:07:21.644Z,8.46
2023-02-21T09:09:48.475Z,8.69
2023-02-21T09:12:17.300Z,8.53
2023-02-21T09:14:43.932Z,8.63
2023-02-21T09:17:12.976Z,8.75
2023-02-21T09:19:40.206Z,8.79
2023-02-21T09:22:08.584Z,8.83
2023-02-21T09:24:35.344Z,8.94
2023-02-21T09:27:04.638Z,8.94
2023-02-21T09:29:44.836Z,9.09
2023-02-21T09:32:11.984Z,9.34
2023-02-21T09:34:38.743Z,9.22
2023-02-21T09:37:06.069Z,9.36
2023-02-21T09:39:32.503Z,9.53
2023-02-21T09:41:59.068Z,9.39
2023-02-21T09:44:27.848Z,9.40
2023-02-21T09:47:07.511Z,9.68
2023-02-21T09:49:39.106Z,9.77
2023-02-21T09:52:07.567Z,10.04
2023-02-21T09:54:38.804Z,10.14
2023-02-21T09:57:10.981Z,10.38
2023-02-21T09:59:37.441Z,10.65
2023-02-21T10:02:29.090Z,10.48
2023-02-21T10:05:34.052Z,10.46
2023-02-21T10:08:15.878Z,10.69
2023-02-21T10:10:48.622Z,10.78
2023-02-21T10:13:40.443Z,10.95
2023-02-21T10:16:21.272Z,11.15
2023-02-21T10:19:09.032Z,11.26
2023-02-21T10:21:40.868Z,11.24
2023-02-21T10:24:17.070Z,11.46
2023-02-21T10:26:52.789Z,11.28
2023-02-21T10:29:30.288Z,11.56
2023-02-21T10:32:03.369Z,11.59
2023-02-21T10:34:32.576Z,11.60
2023-02-21T10:37:15.357Z,11.79
2023-02-21T10:39:46.308Z,11.95
2023-02-21T10:42:21.635Z,11.86
2023-02-21T10:44:49.161Z,12.11
2023-02-21T10:47:24.265Z,12.37
2023-02-21T10:50:06.260Z,12.48
2023-02-21T10:52:48.886Z,12.64
2023-02-21T10:55:32.306Z,12.83
2023-02-21T10:58:08.975Z,12.90
2023-02-21T11:00:38.743Z,12.88
2023-02-21T11:03:27.468Z,13.04
2023-02-21T11:05:59.671Z,13.13
2023-02-21T11:08:35.294Z,13.29
2023-02-21T11:11:02.664Z,13.19
2023-02-21T11:13:30.300Z,13.08
2023-02-21T11:16:11.767Z,13.20
2023-02-21T11:18:38.362Z,13.38
2023-02-21T11:21:19.295Z,13.53
2023-02-21T11:23:47.804Z,13.33
2023-02-21T11:26:15.470Z,13.34
2023-02-21T11:28:47.342Z,13.50
2023-02-21T11:31:28.219Z,13.66
2023-02-21T11:34:01.690Z,13.79
2023-02-21T11:36:40.352Z,13.65
2023-02-21T11:39:27.869Z,13.52
2023-02-21T11:41:56.452Z,13.61
2023-02-21T11:44:41.129Z,13.52
2023-02-21T11:47:16.769Z,13.51
2023-02-21T11:50:04.033Z,13.53
2023-02-21T11:52:48.144Z,13.68
2023-02-21T11:55:18.030Z,13.68
2023-02-21T11:58:09.319Z,13.60
2023-02-21T12:00:45.273Z,13.58
2023-02-21T12:03:26.965Z,13.50
2023-02-21T12:05:56.462Z,13.55
2023-02-21T12:08:39.478Z,13.77
2023-02-21T12:11:22.868Z,13.67
2023-02-21T12:14:03.278Z,13.65
2023-02-21T12:16:50.335Z,13.52
2023-02-21T12:19:41.618Z,13.45
2023-02-21T12:22:28.701Z,13.38
2023-02-21T12:25:13.364Z,13.33
2023-02-21T12:28:04.526Z,13.29
2023-02-21T12:30:49.816Z,13.57
2023-02-21T12:33:16.243Z,13.69
2023-02-21T12:36:15.650Z,13.47
2023-02-21T12:38:53.768Z,13.30
2023-02-21T12:41:35.577Z,13.18
2023-02-21T12:44:36.576Z,13.34
2023-02-21T12:47:12.011Z,13.23
2023-02-21T12:49:58.205Z,13.18
2023-02-21T12:52:30.875Z,13.19
2023-02-21T12:55:07.101Z,13.17
2023-02-21T12:57:45.836Z,13.02
2023-02-21T13:00:17.514Z,12.88
2023-02-21T13:03:00.045Z,12.83
2023-02-21T13:05:37.444Z,13.10
2023-02-21T13:08:33.054Z,13.56
2023-02-21T13:11:29.405Z,13.56
2023-02-21T13:13:57.981Z,13.32
2023-02-21T13:16:25.153Z,13.17
2023-02-21T13:18:59.486Z,13.08
2023-02-21T13:22:03.780Z,13.08
2023-02-21T13:25:12.509Z,13.02
2023-02-21T13:27:46.647Z,13.13
2023-02-21T13:30:31.448Z,13.02
2023-02-21T13:33:00.715Z,13.02
2023-02-21T13:35:32.590Z,12.96
2023-02-21T13:38:01.160Z,12.98
2023-02-21T13:40:44.023Z,13.02
2023-02-21T13:43:16.102Z,12.92
2023-02-21T13:45:42.563Z,12.93
2023-02-21T13:48:08.924Z,13.05
2023-02-21T13:50:38.784Z,13.35
2023-02-21T13:53:08.533Z,13.50
2023-02-21T13:55:36.843Z,13.61
2023-02-21T13:58:05.207Z,13.53
2023-02-21T14:00:31.691Z,13.60
2023-02-21T14:03:28.415Z,13.46
2023-02-21T14:05:54.789Z,13.35
2023-02-21T14:08:32.448Z,13.25
2023-02-21T14:11:04.957Z,13.24
2023-02-21T14:13:46.659Z,13.10
2023-02-21T14:16:13.295Z,13.05
2023-02-21T14:18:45.308Z,13.01
2023-02-21T14:21:30.470Z,13.09
2023-02-21T14:24:09.035Z,13.31
2023-02-21T14:26:42.966Z,13.15
2023-02-21T14:29:09.472Z,13.12
2023-02-21T14:31:55.570Z,13.05
2023-02-21T14:34:42.618Z,13.12
2023-02-21T14:37:17.239Z,13.08
2023-02-21T14:39:48.866Z,13.20
2023-02-21T14:42:34.017Z,13.18
2023-02-21T14:45:09.570Z,13.18
2023-02-21T14:47:42.062Z,13.16
2023-02-21T14:50:47.472Z,13.07
2023-02-21T14:53:40.365Z,13.03
2023-02-21T14:56:45.272Z,13.12
2023-02-21T14:59:33.996Z,12.89
2023-02-21T15:02:34.468Z,13.12
2023-02-21T15:05:17.809Z,13.37
2023-02-21T15:08:05.272Z,13.31
2023-02-21T15:10:41.734Z,13.17
2023-02-21T15:13:30.833Z,13.17
2023-02-21T15:16:06.699Z,13.02
2023-02-21T15:18:38.944Z,13.12
2023-02-21T15:21:15.376Z,12.90
2023-02-21T15:23:44.636Z,13.01
2023-02-21T15:26:22.035Z,12.88
2023-02-21T15:29:12.422Z,12.88
2023-02-21T15:31:48.287Z,12.99
2023-02-21T15:34:29.780Z,12.93
2023-02-21T15:37:11.157Z,12.90
2023-02-21T15:39:40.581Z,12.93
2023-02-21T15:42:10.472Z,12.94
2023-02-21T15:44:39.452Z,12.83
2023-02-21T15:47:17.845Z,12.71
2023-02-21T15:50:05.890Z,12.65
2023-02-21T15:52:41.704Z,12.68
2023-02-21T15:55:18.549Z,12.63
2023-02-21T15:57:58.858Z,12.59
2023-02-21T16:00:32.939Z,12.51
2023-02-21T16:03:36.567Z,12.44
2023-02-21T16:06:15.130Z,12.35
2023-02-21T16:09:05.566Z,12.29
2023-02-21T16:11:47.032Z,12.23
2023-02-21T16:14:20.689Z,12.01
2023-02-21T16:16:53.708Z,12.04
2023-02-21T16:19:23.288Z,11.84
2023-02-21T16:21:51.079Z,11.75
2023-02-21T16:24:29.869Z,11.77
2023-02-21T16:27:09.768Z,11.52
2023-02-21T16:29:36.299Z,11.48
2023-02-21T16:32:03.346Z,11.49
2023-02-21T16:34:32.709Z,11.39
2023-02-21T16:37:05.303Z,11.30
2023-02-21T16:39:31.952Z,11.22
2023-02-21T16:41:58.511Z,11.11
2023-02-21T16:44:25.151Z,11.05
2023-02-21T16:46:56.542Z,10.91
2023-02-21T16:49:23.068Z,10.78
2023-02-21T16:51:49.929Z,10.65
2023-02-21T16:54:17.442Z,10.65
2023-02-21T16:56:46.441Z,10.56
2023-02-21T16:59:17.109Z,10.47
2023-02-21T17:01:43.793Z,10.29
2023-02-21T17:04:16.329Z,10.28
2023-02-21T17:06:46.608Z,10.07
2023-02-21T17:09:19.853Z,10.06
2023-02-21T17:11:46.443Z,10.01
2023-02-21T17:14:13.273Z,9.92
2023-02-21T17:16:39.760Z,9.85
2023-02-21T17:19:06.229Z,9.73
2023-02-21T17:21:32.708Z,9.60
2023-02-21T17:23:59.163Z,9.54
2023-02-21T17:26:25.646Z,9.44
2023-02-21T17:28:52.363Z,9.33
2023-02-21T17:31:19.591Z,9.27
2023-02-21T17:33:46.425Z,9.19
2023-02-21T17:36:18.044Z,9.06
2023-02-21T17:38:45.128Z,8.96
2023-02-21T17:41:12.458Z,8.87
2023-02-21T17:43:39.334Z,8.83
2023-02-21T17:46:10.661Z,8.88
2023-02-21T17:48:37.772Z,8.76
2023-02-21T17:51:04.642Z,8.60
2023-02-21T17:53:31.286Z,8.51
2023-02-21T17:55:59.747Z,8.45
2023-02-21T17:58:27.311Z,8.38
2023-02-21T18:00:56.692Z,8.31
2023-02-21T18:03:24.328Z,8.26
2023-02-21T18:05:51.521Z,8.35
2023-02-21T18:08:18.973Z,8.11
2023-02-21T18:10:48.379Z,8.05
2023-02-21T18:13:24.403Z,8.00
2023-02-21T18:15:50.853Z,8.04
2023-02-21T18:18:17.922Z,8.01
2023-02-21T18:20:45.853Z,7.91
2023-02-21T18:23:12.696Z,7.83
2023-02-21T18:25:39.184Z,7.80
2023-02-21T18:28:05.737Z,7.58
2023-02-21T18:30:32.398Z,7.59
2023-02-21T18:32:59.937Z,7.39
2023-02-21T18:35:26.466Z,7.62
2023-02-21T18:37:52.902Z,7.58
2023-02-21T18:40:19.641Z,7.43
2023-02-21T18:42:47.729Z,7.50
2023-02-21T18:45:14.180Z,7.44
2023-02-21T18:47:40.677Z,7.38
2023-02-21T18:50:07.879Z,7.28
2023-02-21T18:52:34.426Z,7.16
2023-02-21T18:55:03.714Z,7.10
2023-02-21T18:57:30.599Z,7.01
2023-02-21T18:59:58.307Z,7.12
2023-02-21T19:02:25.416Z,7.03
2023-02-21T19:04:51.867Z,6.97
2023-02-21T19:07:18.373Z,6.86
2023-02-21T19:09:47.480Z,6.60
2023-02-21T19:12:14.906Z,6.77
2023-02-21T19:14:41.545Z,6.88
2023-02-21T19:17:09.283Z,6.90
2023-02-21T19:19:36.711Z,6.76
2023-02-21T19:22:03.901Z,6.75
2023-02-21T19:24:30.546Z,6.72
2023-02-21T19:26:57.064Z,6.71
2023-02-21T19:29:23.567Z,6.44
2023-02-21T19:31:50.381Z,6.67
2023-02-21T19:34:16.895Z,6.53
2023-02-21T19:36:43.469Z,6.55
2023-02-21T19:39:10.158Z,6.54
2023-02-21T19:41:36.675Z,6.55
2023-02-21T19:44:04.126Z,6.48
2023-02-21T19:46:30.941Z,6.38
2023-02-21T19:48:57.393Z,6.20
2023-02-21T19:51:25.437Z,6.26
2023-02-21T19:53:51.866Z,6.25
2023-02-21T19:56:18.328Z,6.19
2023-02-21T19:58:47.036Z,6.06
2023-02-21T20:01:13.801Z,5.99
2023-02-21T20:03:41.811Z,5.89
2023-02-21T20:06:08.472Z,6.03
2023-02-21T20:08:35.024Z,5.88
2023-02-21T20:11:01.491Z,5.92
2023-02-21T20:13:27.936Z,5.87
2023-02-21T20:15:54.381Z,5.83
2023-02-21T20:18:20.912Z,5.68
2023-02-21T20:20:49.499Z,5.63
2023-02-21T20:23:17.954Z,5.68
2023-02-21T20:25:44.653Z,5.58
2023-02-21T20:28:11.147Z,5.44
2023-02-21T20:30:38.461Z,5.42
2023-02-21T20:33:06.800Z,5.37
2023-02-21T20:35:33.678Z,5.43
2023-02-21T20:38:05.166Z,5.48
2023-02-21T20:40:35.124Z,5.28
2023-02-21T20:43:01.643Z,5.11
2023-02-21T20:45:28.229Z,5.22
2023-02-21T20:47:55.119Z,5.22
2023-02-21T20:50:26.516Z,5.21
2023-02-21T20:52:53.059Z,5.15
2023-02-21T20:55:22.129Z,5.17
2023-02-21T20:57:48.709Z,5.07
2023-02-21T21:00:15.593Z,5.03
2023-02-21T21:02:42.545Z,4.99
2023-02-21T21:05:13.517Z,4.99
2023-02-21T21:07:41.334Z,4.94
2023-02-21T21:10:11.379Z,4.89
2023-02-21T21:12:38.012Z,4.92
2023-02-21T21:15:05.361Z,5.03
2023-02-21T21:17:31.901Z,4.96
2023-02-21T21:19:58.568Z,4.82
2023-02-21T21:22:27.922Z,4.72
2023-02-21T21:24:55.661Z,4.64
2023-02-21T21:27:22.623Z,4.62
2023-02-21T21:29:49.580Z,4.43
2023-02-21T21:32:19.643Z,4.46
2023-02-21T21:34:48.940Z,4.50
2023-02-21T21:37:18.434Z,4.47
2023-02-21T21:39:49.622Z,4.31
2023-02-21T21:42:18.515Z,4.36
2023-02-21T21:44:47.392Z,4.35
2023-02-21T21:47:15.554Z,4.20
2023-02-21T21:49:42.089Z,4.30
2023-02-21T21:52:10.029Z,4.15
2023-02-21T21:54:37.560Z,4.16
2023-02-21T21:57:05.432Z,4.06
2023-02-21T21:59:32.627Z,4.25
2023-02-21T22:01:59.627Z,4.18
2023-02-21T22:04:27.136Z,3.94
2023-02-21T22:06:55.329Z,4.11
2023-02-21T22:09:22.616Z,3.94
2023-02-21T22:11:50.339Z,3.96
2023-02-21T22:14:18.576Z,3.92
2023-02-21T22:16:47.981Z,3.88
2023-02-21T22:19:15.767Z,3.85
2023-02-21T22:21:45.141Z,3.75
2023-02-21T22:24:15.192Z,3.71
2023-02-21T22:26:47.429Z,3.61
2023-02-21T22:29:16.253Z,3.74
2023-02-21T22:31:43.998Z,3.61
2023-02-21T22:34:10.762Z,3.68
2023-02-21T22:36:37.282Z,3.43
2023-02-21T22:39:11.077Z,3.59
2023-02-21T22:41:37.824Z,3.52
2023-02-21T22:44:04.412Z,3.37
2023-02-21T22:46:46.110Z,3.41
2023-02-21T22:49:12.938Z,3.52
2023-02-21T22:51:39.409Z,3.37
2023-02-21T22:54:05.950Z,3.41
2023-02-21T22:56:38.214Z,3.47
2023-02-21T22:59:08.890Z,3.25
2023-02-21T23:01:35.421Z,3.28
2023-02-21T23:04:11.841Z,3.26
2023-02-21T23:06:38.351Z,3.43
2023-02-21T23:09:12.197Z,3.43
2023-02-21T23:11:40.485Z,3.29
2023-02-21T23:14:08.001Z,3.38
2023-02-21T23:16:34.726Z,3.16
2023-02-21T23:19:01.750Z,3.30
2023-02-21T23:21:30.371Z,3.15
2023-02-21T23:23:58.172Z,3.15
2023-02-21T23:26:25.276Z,3.28
2023-02-21T23:28:51.863Z,3.23
2023-02-21T23:31:19.633Z,3.19
2023-02-21T23:33:48.709Z,3.04
2023-02-21T23:36:22.673Z,3.07
2023-02-21T23:38:50.591Z,3.08
2023-02-21T23:41:17.683Z,3.16
2023-02-21T23:43:48.131Z,2.97
2023-02-21T23:46:23.206Z,3.09
2023-02-21T23:48:53.503Z,3.04
2023-02-21T23:51:23.287Z,2.92
2023-02-21T23:53:49.716Z,2.79
2023-02-21T23:56:16.544Z,2.83
2023-02-21T23:58:46.378Z,2.75
